createdAt,value
2019-02-27T00:01:24.910Z,8.17
2019-02-27T00:04:15.731Z,6.33
2019-02-27T00:07:06.091Z,9.30
2019-02-27T00:09:56.434Z,7.13
2019-02-27T00:12:46.918Z,8.87
2019-02-27T00:15:38.040Z,9.80
2019-02-27T00:18:29.712Z,7.07
2019-02-27T00:21:22.353Z,9.30
2019-02-27T00:24:12.772Z,15.63
2019-02-27T00:27:03.931Z,9.30
2019-02-27T00:29:54.373Z,8.37
2019-02-27T00:32:45.492Z,6.63
2019-02-27T00:35:38.940Z,6.47
2019-02-27T00:38:28.312Z,13.67
2019-02-27T00:41:19.152Z,7.40
2019-02-27T00:44:10.231Z,5.70
2019-02-27T00:47:01.060Z,6.27
2019-02-27T00:49:51.993Z,13.80
2019-02-27T00:52:43.911Z,6.73
2019-02-27T00:55:38.553Z,8.57
2019-02-27T00:58:27.579Z,6.90
2019-02-27T01:01:18.332Z,7.33
2019-02-27T01:04:08.573Z,10.60
2019-02-27T01:06:59.451Z,9.30
2019-02-27T01:09:50.973Z,13.10
2019-02-27T01:12:41.876Z,8.87
2019-02-27T01:15:33.052Z,13.47
2019-02-27T01:18:23.934Z,8.10
2019-02-27T01:21:19.241Z,12.90
2019-02-27T01:24:06.858Z,9.23
2019-02-27T01:26:57.853Z,8.50
2019-02-27T01:29:50.877Z,8.03
2019-02-27T01:32:40.573Z,8.87
2019-02-27T01:35:30.320Z,12.90
2019-02-27T01:38:21.053Z,7.17
2019-02-27T01:41:11.313Z,6.97
2019-02-27T01:44:02.173Z,5.83
2019-02-27T01:46:54.705Z,8.47
2019-02-27T01:49:48.912Z,16.60
2019-02-27T01:52:37.071Z,13.03
2019-02-27T01:55:27.773Z,6.67
2019-02-27T01:58:18.832Z,9.23
2019-02-27T02:01:08.773Z,9.73
2019-02-27T02:03:58.626Z,9.87
2019-02-27T02:06:48.913Z,11.00
2019-02-27T02:09:42.373Z,9.87
2019-02-27T02:12:33.531Z,8.13
2019-02-27T02:15:54.822Z,11.23
2019-02-27T02:19:11.633Z,8.23
2019-02-27T02:22:31.333Z,9.33
2019-02-27T02:25:54.172Z,8.13
2019-02-27T02:29:34.333Z,13.00
2019-02-27T02:32:53.300Z,9.50
2019-02-27T02:36:09.214Z,9.10
2019-02-27T02:39:29.744Z,6.50
2019-02-27T02:42:38.794Z,10.30
2019-02-27T02:45:44.593Z,8.30
2019-02-27T02:48:53.377Z,9.50
2019-02-27T02:52:12.752Z,9.33
2019-02-27T02:55:47.818Z,8.03
2019-02-27T03:03:44.207Z,11.03
2019-02-27T03:07:10.874Z,8.07
2019-02-27T03:10:42.807Z,11.23
2019-02-27T03:14:25.935Z,16.43
2019-02-27T03:17:57.471Z,9.43
2019-02-27T03:20:57.272Z,10.80
2019-02-27T03:24:28.146Z,6.53
2019-02-27T03:27:43.296Z,7.77
2019-02-27T03:31:00.619Z,7.80
2019-02-27T03:34:16.255Z,8.47
2019-02-27T03:37:18.046Z,9.87
2019-02-27T03:40:24.373Z,8.03
2019-02-27T03:44:21.666Z,9.33
2019-02-27T03:47:33.454Z,9.53
2019-02-27T03:50:49.905Z,8.90
2019-02-27T03:54:23.955Z,9.13
2019-02-27T03:58:02.895Z,9.07
2019-02-27T04:01:40.086Z,10.07
2019-02-27T04:04:39.294Z,9.27
2019-02-27T04:08:31.934Z,11.10
2019-02-27T04:11:22.355Z,10.33
2019-02-27T04:14:40.450Z,7.73
2019-02-27T04:17:29.867Z,9.47
2019-02-27T04:20:21.203Z,11.40
2019-02-27T04:23:12.485Z,10.70
2019-02-27T04:26:05.807Z,10.00
2019-02-27T04:28:55.637Z,11.17
2019-02-27T04:31:45.940Z,11.37
2019-02-27T04:34:36.212Z,14.37
2019-02-27T04:37:26.694Z,12.40
2019-02-27T04:40:18.814Z,13.63
2019-02-27T04:43:08.772Z,11.57
2019-02-27T04:45:59.373Z,18.50
2019-02-27T04:48:49.473Z,15.97
2019-02-27T04:51:39.713Z,12.23
2019-02-27T04:54:30.416Z,13.60
2019-02-27T04:57:20.452Z,11.00
2019-02-27T05:00:10.897Z,11.27
2019-02-27T05:03:01.713Z,9.30
2019-02-27T05:05:51.613Z,9.70
2019-02-27T05:08:42.853Z,14.70
2019-02-27T05:11:33.373Z,16.60
2019-02-27T05:14:24.779Z,11.00
2019-02-27T05:17:16.275Z,13.10
2019-02-27T05:20:11.479Z,17.47
2019-02-27T05:23:00.411Z,18.07
2019-02-27T05:25:51.812Z,13.23
2019-02-27T05:28:42.090Z,6.73
2019-02-27T05:31:32.732Z,13.13
2019-02-27T05:34:22.973Z,11.03
2019-02-27T05:37:14.655Z,11.30
2019-02-27T05:40:05.823Z,10.67
2019-02-27T05:42:56.735Z,12.37
2019-02-27T05:45:47.020Z,12.87
2019-02-27T05:48:37.556Z,11.87
2019-02-27T05:51:28.256Z,10.47
2019-02-27T05:54:19.133Z,15.17
2019-02-27T05:57:09.413Z,13.30
2019-02-27T06:00:02.295Z,16.67
2019-02-27T06:02:51.472Z,10.20
2019-02-27T06:05:49.427Z,14.10
2019-02-27T06:08:36.710Z,15.90
2019-02-27T06:11:27.084Z,16.57
2019-02-27T06:14:21.212Z,11.60
2019-02-27T06:17:10.161Z,12.93
2019-02-27T06:20:00.952Z,15.23
2019-02-27T06:22:51.473Z,12.77
2019-02-27T06:25:41.617Z,14.33
2019-02-27T06:28:32.595Z,13.00
2019-02-27T06:31:22.780Z,16.20
2019-02-27T06:34:13.435Z,11.67
2019-02-27T06:37:03.673Z,17.97
2019-02-27T06:39:54.493Z,14.57
2019-02-27T06:42:45.636Z,12.67
2019-02-27T06:45:36.493Z,13.27
2019-02-27T06:48:26.873Z,15.40
2019-02-27T06:51:17.072Z,11.90
2019-02-27T06:54:07.132Z,11.60
2019-02-27T06:56:57.170Z,11.50
2019-02-27T06:59:47.123Z,16.93
2019-02-27T07:02:36.576Z,14.83
2019-02-27T07:05:27.633Z,14.03
2019-02-27T07:08:17.858Z,20.90
2019-02-27T07:11:10.539Z,13.57
2019-02-27T07:14:00.255Z,15.80
2019-02-27T07:16:51.000Z,12.50
2019-02-27T07:19:41.581Z,17.83
2019-02-27T07:22:31.920Z,17.97
2019-02-27T07:25:22.132Z,18.47
2019-02-27T07:28:11.703Z,15.77
2019-02-27T07:31:02.013Z,14.37
2019-02-27T07:33:52.729Z,26.00
2019-02-27T07:36:42.732Z,18.53
2019-02-27T07:39:33.356Z,15.63
2019-02-27T07:42:23.453Z,14.53
2019-02-27T07:45:15.634Z,17.03
2019-02-27T07:48:05.709Z,17.60
2019-02-27T07:50:56.593Z,13.50
2019-02-27T07:53:46.575Z,15.03
2019-02-27T07:56:36.936Z,13.83
2019-02-27T07:59:27.435Z,17.20
2019-02-27T08:02:17.533Z,12.50
2019-02-27T08:05:08.534Z,14.20
2019-02-27T08:07:59.473Z,15.50
2019-02-27T08:10:49.816Z,12.57
2019-02-27T08:13:40.252Z,18.07
2019-02-27T08:16:30.332Z,14.27
2019-02-27T08:19:20.913Z,15.83
2019-02-27T08:22:11.474Z,14.23
2019-02-27T08:25:01.693Z,13.10
2019-02-27T08:27:54.252Z,16.87
2019-02-27T08:30:44.545Z,15.70
2019-02-27T08:33:34.864Z,15.90
2019-02-27T08:36:25.373Z,13.13
2019-02-27T08:39:16.533Z,12.13
2019-02-27T08:42:06.713Z,14.67
2019-02-27T08:44:57.452Z,9.93
2019-02-27T08:47:47.935Z,10.87
2019-02-27T08:50:38.193Z,16.00
2019-02-27T08:53:28.460Z,9.83
2019-02-27T08:56:18.651Z,10.83
2019-02-27T08:59:08.757Z,6.73
2019-02-27T09:01:58.937Z,13.00
2019-02-27T09:04:48.894Z,9.17
2019-02-27T09:07:40.201Z,9.80
2019-02-27T09:10:31.300Z,9.13
2019-02-27T09:13:21.894Z,13.40
2019-02-27T09:16:12.311Z,10.83
2019-02-27T09:19:02.413Z,18.57
2019-02-27T09:21:54.156Z,10.03
2019-02-27T09:24:43.773Z,11.97
2019-02-27T09:27:35.339Z,11.57
2019-02-27T09:30:28.750Z,12.63
2019-02-27T09:33:17.033Z,11.50
2019-02-27T09:36:10.339Z,10.87
2019-02-27T09:39:00.513Z,10.13
2019-02-27T09:41:52.214Z,13.50
2019-02-27T09:44:43.452Z,12.80
2019-02-27T09:47:33.532Z,11.40
2019-02-27T09:50:35.051Z,14.33
2019-02-27T09:53:25.373Z,13.27
2019-02-27T09:56:15.653Z,12.30
2019-02-27T09:59:05.580Z,11.53
2019-02-27T10:01:57.164Z,12.57
2019-02-27T10:04:47.532Z,9.80
2019-02-27T10:07:37.733Z,12.90
2019-02-27T10:10:27.732Z,15.53
2019-02-27T10:13:17.489Z,12.00
2019-02-27T10:16:07.890Z,13.63
2019-02-27T10:18:57.821Z,17.73
2019-02-27T10:21:48.026Z,15.43
2019-02-27T10:24:38.275Z,12.40
2019-02-27T10:27:29.431Z,12.57
2019-02-27T10:30:20.186Z,12.47
2019-02-27T10:33:11.827Z,10.97
2019-02-27T10:36:03.636Z,11.70
2019-02-27T10:38:53.096Z,10.70
2019-02-27T10:41:44.872Z,10.08
2019-02-27T10:44:35.493Z,10.03
2019-02-27T10:47:26.485Z,12.10
2019-02-27T10:50:17.021Z,7.40
2019-02-27T10:53:07.799Z,12.20
2019-02-27T10:55:58.572Z,8.50
2019-02-27T10:58:48.912Z,8.83
2019-02-27T11:01:39.571Z,6.47
2019-02-27T11:04:29.935Z,10.53
2019-02-27T11:07:20.755Z,11.18
2019-02-27T11:10:11.112Z,10.95
2019-02-27T11:13:05.676Z,13.28
2019-02-27T11:15:53.013Z,10.58
2019-02-27T11:18:43.832Z,10.20
2019-02-27T11:21:34.333Z,12.88
2019-02-27T11:24:24.893Z,7.72
2019-02-27T11:27:16.863Z,6.87
2019-02-27T11:30:08.773Z,8.05
2019-02-27T11:32:59.412Z,10.90
2019-02-27T11:35:51.535Z,7.35
2019-02-27T11:38:42.173Z,9.03
2019-02-27T11:41:32.176Z,10.08
2019-02-27T11:44:22.632Z,11.05
2019-02-27T11:47:12.443Z,8.23
2019-02-27T11:50:03.389Z,9.75
2019-02-27T11:52:54.034Z,8.95
2019-02-27T11:55:47.113Z,8.40
2019-02-27T11:58:38.385Z,8.80
2019-02-27T12:01:28.180Z,9.93
2019-02-27T12:04:19.565Z,9.10
2019-02-27T12:07:12.312Z,9.18
2019-02-27T12:10:02.728Z,10.28
2019-02-27T12:12:52.973Z,8.75
2019-02-27T12:15:43.626Z,8.78
2019-02-27T12:18:35.199Z,8.78
2019-02-27T12:21:26.314Z,6.35
2019-02-27T12:24:18.980Z,7.45
2019-02-27T12:27:11.826Z,6.30
2019-02-27T12:30:02.742Z,6.00
2019-02-27T12:32:56.732Z,7.33
2019-02-27T12:35:45.892Z,6.45
2019-02-27T12:38:36.033Z,6.95
2019-02-27T12:41:26.433Z,7.90
2019-02-27T12:44:16.571Z,7.03
2019-02-27T12:47:07.372Z,7.20
2019-02-27T12:49:57.439Z,9.03
2019-02-27T12:52:48.251Z,8.98
2019-02-27T12:55:39.313Z,5.62
2019-02-27T12:58:29.693Z,5.35
2019-02-27T13:01:21.283Z,6.37
2019-02-27T13:04:16.068Z,7.28
2019-02-27T13:07:03.892Z,7.25
2019-02-27T13:09:58.474Z,4.58
2019-02-27T13:12:46.313Z,4.87
2019-02-27T13:15:38.267Z,5.65
2019-02-27T13:18:31.624Z,4.72
2019-02-27T13:21:20.588Z,6.22
2019-02-27T13:24:15.060Z,5.85
2019-02-27T13:27:03.335Z,17.92
2019-02-27T13:29:55.473Z,4.00
2019-02-27T13:32:44.933Z,5.55
2019-02-27T13:35:35.293Z,5.47
2019-02-27T13:38:25.916Z,5.30
2019-02-27T13:41:15.741Z,4.08
2019-02-27T13:44:07.883Z,7.47
2019-02-27T13:46:58.510Z,4.53
2019-02-27T13:49:48.725Z,3.87
2019-02-27T13:52:39.473Z,3.67
2019-02-27T13:55:30.147Z,4.78
2019-02-27T13:58:20.257Z,4.10
2019-02-27T14:01:12.087Z,7.08
2019-02-27T14:04:02.117Z,6.15
2019-02-27T14:06:52.433Z,3.50
2019-02-27T14:09:43.059Z,4.40
2019-02-27T14:12:35.486Z,3.35
2019-02-27T14:15:27.394Z,3.67
2019-02-27T14:18:16.804Z,6.53
2019-02-27T14:21:07.532Z,4.37
2019-02-27T14:23:57.473Z,4.15
2019-02-27T14:26:47.633Z,3.62
2019-02-27T14:29:38.012Z,2.90
2019-02-27T14:32:28.333Z,3.33
2019-02-27T14:35:19.360Z,3.02
2019-02-27T14:38:10.281Z,3.15
2019-02-27T14:41:00.098Z,6.92
2019-02-27T14:43:51.512Z,4.42
2019-02-27T14:46:45.040Z,3.15
2019-02-27T14:49:33.649Z,4.17
2019-02-27T14:52:24.313Z,3.15
2019-02-27T14:55:14.965Z,4.53
2019-02-27T14:58:05.272Z,3.25
2019-02-27T15:00:55.897Z,4.33
2019-02-27T15:03:46.806Z,4.10
2019-02-27T15:06:37.553Z,4.58
2019-02-27T15:09:28.055Z,4.62
2019-02-27T15:12:19.514Z,4.58
2019-02-27T15:15:12.727Z,5.03
2019-02-27T15:18:03.472Z,7.67
2019-02-27T15:20:53.853Z,3.80
2019-02-27T15:23:44.020Z,5.53
2019-02-27T15:26:34.573Z,6.28
2019-02-27T15:29:24.748Z,7.87
2019-02-27T15:32:15.264Z,3.23
2019-02-27T15:35:05.753Z,5.60
2019-02-27T15:37:56.528Z,4.83
2019-02-27T15:40:46.727Z,5.00
2019-02-27T15:43:36.860Z,4.73
2019-02-27T15:46:29.536Z,4.43
2019-02-27T15:49:20.253Z,6.47
2019-02-27T15:52:10.774Z,5.27
2019-02-27T15:55:01.105Z,5.47
2019-02-27T15:57:53.653Z,7.43
2019-02-27T16:00:44.117Z,8.77
2019-02-27T16:03:35.684Z,6.73
2019-02-27T16:06:26.052Z,4.57
2019-02-27T16:09:16.435Z,10.03
2019-02-27T16:12:07.132Z,5.57
2019-02-27T16:14:57.373Z,5.87
2019-02-27T16:17:47.915Z,6.83
2019-02-27T16:20:38.672Z,5.97
2019-02-27T16:23:29.232Z,8.67
2019-02-27T16:26:19.792Z,7.17
2019-02-27T16:29:10.016Z,5.67
2019-02-27T16:32:00.274Z,6.20
2019-02-27T16:34:50.680Z,6.73
2019-02-27T16:37:41.692Z,5.47
2019-02-27T16:40:32.594Z,5.60
2019-02-27T16:43:23.455Z,4.47
2019-02-27T16:46:13.773Z,3.93
2019-02-27T16:49:03.954Z,5.53
2019-02-27T16:51:54.176Z,5.80
2019-02-27T16:54:44.195Z,4.67
2019-02-27T16:57:34.436Z,5.00
2019-02-27T17:00:26.539Z,6.33
2019-02-27T17:03:16.353Z,4.00
2019-02-27T17:06:06.301Z,8.43
2019-02-27T17:08:56.580Z,4.90
2019-02-27T17:11:46.935Z,9.60
2019-02-27T17:14:37.058Z,10.83
2019-02-27T17:17:27.518Z,7.07
2019-02-27T17:20:18.972Z,4.67
2019-02-27T17:23:10.865Z,9.63
2019-02-27T17:26:04.337Z,8.53
2019-02-27T17:28:53.432Z,11.07
2019-02-27T17:31:49.269Z,8.43
2019-02-27T17:34:36.894Z,9.93
2019-02-27T17:37:26.303Z,7.63
2019-02-27T17:40:17.094Z,9.17
2019-02-27T17:43:07.478Z,7.77
2019-02-27T17:45:58.096Z,13.60
2019-02-27T17:48:49.086Z,10.37
2019-02-27T17:51:40.661Z,15.33
2019-02-27T17:54:32.103Z,8.93
2019-02-27T17:57:25.101Z,9.10
2019-02-27T18:00:19.766Z,9.63
2019-02-27T18:03:10.075Z,14.07
2019-02-27T18:06:00.916Z,7.80
2019-02-27T18:08:52.453Z,17.67
2019-02-27T18:11:42.910Z,7.87
2019-02-27T18:14:33.335Z,7.43
2019-02-27T18:17:23.796Z,7.27
2019-02-27T18:20:13.893Z,10.57
2019-02-27T18:23:04.572Z,5.90
2019-02-27T18:25:55.773Z,12.50
2019-02-27T18:28:46.334Z,9.73
2019-02-27T18:31:37.414Z,6.97
2019-02-27T18:34:27.773Z,4.63
2019-02-27T18:37:19.066Z,9.33
2019-02-27T18:40:11.167Z,5.93
2019-02-27T18:43:02.995Z,8.67
2019-02-27T18:45:53.893Z,7.60
2019-02-27T18:48:44.489Z,6.60
2019-02-27T18:51:35.034Z,8.40
2019-02-27T18:54:26.074Z,10.27
2019-02-27T18:57:16.873Z,10.57
2019-02-27T19:00:09.263Z,9.13
2019-02-27T19:03:00.553Z,7.30
2019-02-27T19:05:50.821Z,9.70
2019-02-27T19:08:41.533Z,6.77
2019-02-27T19:11:32.957Z,9.90
2019-02-27T19:14:24.313Z,12.60
2019-02-27T19:17:14.914Z,13.67
2019-02-27T19:20:07.238Z,10.30
2019-02-27T19:22:57.872Z,9.20
2019-02-27T19:25:48.113Z,8.00
2019-02-27T19:28:38.133Z,9.17
2019-02-27T19:31:28.574Z,15.57
2019-02-27T19:34:19.672Z,9.47
2019-02-27T19:37:10.993Z,9.43
2019-02-27T19:40:02.281Z,10.10
2019-02-27T19:42:59.515Z,9.70
2019-02-27T19:45:50.097Z,12.00
2019-02-27T19:48:40.233Z,13.07
2019-02-27T19:51:30.694Z,10.10
2019-02-27T19:54:21.392Z,13.17
2019-02-27T19:57:12.075Z,15.60
2019-02-27T20:00:03.156Z,12.67
2019-02-27T20:02:57.463Z,15.00
2019-02-27T20:05:50.648Z,9.47
2019-02-27T20:08:44.236Z,10.03
2019-02-27T20:11:33.393Z,9.73
2019-02-27T20:14:23.393Z,13.97
2019-02-27T20:17:14.833Z,7.87
2019-02-27T20:20:05.289Z,9.57
2019-02-27T20:22:56.012Z,15.50
2019-02-27T20:25:46.767Z,7.40
2019-02-27T20:28:36.599Z,9.20
2019-02-27T20:31:27.297Z,7.93
2019-02-27T20:34:18.173Z,8.90
2019-02-27T20:37:10.013Z,8.23
2019-02-27T20:40:00.893Z,11.33
2019-02-27T20:42:59.975Z,8.37
2019-02-27T20:45:50.355Z,11.57
2019-02-27T20:48:41.057Z,9.63
2019-02-27T20:51:31.494Z,7.47
2019-02-27T20:54:22.540Z,7.87
2019-02-27T20:57:13.226Z,9.70
2019-02-27T21:00:04.116Z,5.93
2019-02-27T21:02:54.634Z,6.37
2019-02-27T21:05:45.385Z,7.23
2019-02-27T21:08:36.112Z,6.17
2019-02-27T21:11:29.806Z,9.73
2019-02-27T21:14:20.544Z,10.90
2019-02-27T21:17:12.574Z,8.43
2019-02-27T21:20:03.043Z,11.23
2019-02-27T21:22:53.374Z,5.30
2019-02-27T21:25:48.695Z,9.80
2019-02-27T21:28:37.373Z,6.73
2019-02-27T21:31:28.149Z,9.23
2019-02-27T21:34:20.097Z,7.93
2019-02-27T21:37:10.973Z,10.53
2019-02-27T21:40:03.235Z,13.37
2019-02-27T21:42:53.718Z,9.10
2019-02-27T21:45:44.272Z,10.43
2019-02-27T21:48:34.693Z,10.17
2019-02-27T21:51:24.967Z,6.40
2019-02-27T21:54:15.779Z,8.07
2019-02-27T21:57:06.436Z,9.60
2019-02-27T21:59:57.374Z,8.47
2019-02-27T22:02:48.105Z,6.37
2019-02-27T22:05:42.785Z,8.10
2019-02-27T22:08:30.554Z,5.90
2019-02-27T22:11:20.896Z,7.60
2019-02-27T22:14:11.793Z,5.07
2019-02-27T22:17:04.995Z,6.40
2019-02-27T22:19:54.836Z,3.70
2019-02-27T22:22:45.146Z,6.37
2019-02-27T22:25:35.975Z,8.90
2019-02-27T22:28:26.503Z,6.20
2019-02-27T22:31:16.793Z,5.03
2019-02-27T22:34:07.312Z,6.07
2019-02-27T22:36:58.672Z,5.50
2019-02-27T22:39:48.474Z,7.20
2019-02-27T22:42:39.432Z,4.97
2019-02-27T22:45:29.773Z,7.53
2019-02-27T22:48:27.756Z,5.03
2019-02-27T22:51:16.600Z,4.27
2019-02-27T22:54:12.122Z,3.87
2019-02-27T22:57:02.873Z,3.30
2019-02-27T22:59:53.292Z,4.67
2019-02-27T23:02:43.928Z,3.53
2019-02-27T23:05:35.233Z,3.27
2019-02-27T23:08:26.498Z,6.30
2019-02-27T23:11:18.652Z,5.47
2019-02-27T23:14:09.853Z,5.80
2019-02-27T23:17:00.768Z,2.97
2019-02-27T23:19:51.932Z,3.87
2019-02-27T23:22:43.473Z,5.67
2019-02-27T23:25:34.430Z,2.43
2019-02-27T23:28:25.213Z,2.23
2019-02-27T23:31:15.633Z,4.17
2019-02-27T23:34:07.864Z,4.60
2019-02-27T23:36:58.172Z,4.60
2019-02-27T23:39:48.733Z,2.60
2019-02-27T23:42:39.953Z,1.93
2019-02-27T23:45:30.834Z,2.63
2019-02-27T23:48:20.853Z,2.33
2019-02-27T23:51:15.798Z,3.67
2019-02-27T23:54:04.376Z,2.57
2019-02-27T23:56:54.795Z,3.23
2019-02-27T23:59:45.713Z,4.10
